Aviation Digital Data Service (ADDS)

Output produced by TAFs form (1630 UTC 23 November 2017)
found at http://www.aviationweather.gov/adds/tafs/
 
METAR text: OKBK 231600Z 36006KT CAVOK 20/03 Q1017 NOSIG
Conditions at: OKBK (KUWAIT INTL (MIL, KW) observed 1600 UTC 23 November 2017
Temperature: 20.0°C (68°F)
Dewpoint: 3.0°C (37°F) [RH = 32%]
Pressure (altimeter): 30.03 inches Hg (1017.0 mb)
Winds: from the N (360 degrees) at 7 MPH (6 knots; 3.1 m/s)
Visibility: 6 or more miles (10+ km)
Ceiling: ceiling and visibility are OK
Clouds: unknown
Weather: no significant weather observed at this time

Forecast for: OKBK (KUWAIT INTL (MIL, KW)
Text: TAF OKBK 231045Z 2312/2418 35012KT 7000 NSC
Forecast period: 1200 UTC 23 November 2017 to 1800 UTC 24 November 2017
Forecast type: FROM: standard forecast or significant change
Winds: from the N (350 degrees) at 14 MPH (12 knots; 6.2 m/s)
Visibility: 4 miles (7 km)
Clouds: not forecast
Weather: no significant weather forecast for this period